createdAt,value
2019-02-23T00:00:50.959Z,1038.58
2019-02-23T00:01:52.548Z,1038.56
2019-02-23T00:02:50.973Z,1038.6
2019-02-23T00:03:50.991Z,1038.52
2019-02-23T00:04:50.730Z,1038.59
2019-02-23T00:05:50.717Z,1038.61
2019-02-23T00:06:50.891Z,1038.52
2019-02-23T00:07:50.930Z,1038.62
2019-02-23T00:08:50.737Z,1038.59
2019-02-23T00:09:50.770Z,1038.61
2019-02-23T00:10:51.637Z,1038.62
2019-02-23T00:11:50.640Z,1038.58
2019-02-23T00:12:51.041Z,1038.58
2019-02-23T00:13:50.766Z,1038.54
2019-02-23T00:14:51.154Z,1038.59
2019-02-23T00:15:50.910Z,1038.65
2019-02-23T00:16:51.063Z,1038.67
2019-02-23T00:17:52.505Z,1038.71
2019-02-23T00:18:50.715Z,1038.74
2019-02-23T00:19:50.879Z,1038.7
2019-02-23T00:20:50.680Z,1038.79
2019-02-23T00:21:50.734Z,1038.83
2019-02-23T00:22:51.740Z,1038.81
2019-02-23T00:23:50.704Z,1038.83
2019-02-23T00:24:50.980Z,1038.88
2019-02-23T00:25:50.898Z,1038.85
2019-02-23T00:26:50.702Z,1038.91
2019-02-23T00:27:51.024Z,1038.96
2019-02-23T00:28:51.036Z,1038.99
2019-02-23T00:29:51.046Z,1038.98
2019-02-23T00:30:51.157Z,1038.97
2019-02-23T00:31:52.078Z,1038.98
2019-02-23T00:32:51.710Z,1038.97
2019-02-23T00:33:50.982Z,1038.92
2019-02-23T00:34:51.085Z,1038.95
2019-02-23T00:35:50.751Z,1038.99
2019-02-23T00:36:50.738Z,1038.99
2019-02-23T00:37:52.464Z,1038.98
2019-02-23T00:38:50.465Z,1039.03
2019-02-23T00:39:50.453Z,1038.97
2019-02-23T00:40:51.013Z,1039
2019-02-23T00:41:50.618Z,1038.98
2019-02-23T00:42:51.044Z,1038.94
2019-02-23T00:43:51.149Z,1038.99
2019-02-23T00:44:50.623Z,1038.98
2019-02-23T00:45:50.759Z,1039.02
2019-02-23T00:46:50.746Z,1038.97
2019-02-23T00:47:51.059Z,1038.95
2019-02-23T00:48:50.642Z,1038.92
2019-02-23T00:49:50.640Z,1038.95
2019-02-23T00:50:51.088Z,1038.97
2019-02-23T00:51:52.082Z,1038.98
2019-02-23T00:52:51.002Z,1038.98
2019-02-23T00:53:51.629Z,1039.01
2019-02-23T00:54:52.447Z,1039
2019-02-23T00:55:51.008Z,1039.03
2019-02-23T00:56:51.233Z,1039.04
2019-02-23T00:57:51.028Z,1038.98
2019-02-23T00:58:51.038Z,1038.95
2019-02-23T00:59:51.247Z,1038.97
2019-02-23T01:00:50.674Z,1038.98
2019-02-23T01:01:50.866Z,1039.03
2019-02-23T01:02:50.959Z,1039.02
2019-02-23T01:03:51.555Z,1039.03
2019-02-23T01:04:51.173Z,1039.06
2019-02-23T01:05:50.979Z,1039.05
2019-02-23T01:06:50.725Z,1039.09
2019-02-23T01:07:50.616Z,1039.14
2019-02-23T01:08:52.448Z,1039.19
2019-02-23T01:09:50.919Z,1039.2
2019-02-23T01:10:58.514Z,1039.16
2019-02-23T01:11:50.662Z,1039.18
2019-02-23T01:12:50.779Z,1039.13
2019-02-23T01:13:50.938Z,1039.18
2019-02-23T01:14:51.772Z,1039.2
2019-02-23T01:15:52.417Z,1039.21
2019-02-23T01:16:51.045Z,1039.22
2019-02-23T01:17:52.419Z,1039.22
2019-02-23T01:18:50.711Z,1039.22
2019-02-23T01:19:50.976Z,1039.23
2019-02-23T01:20:50.585Z,1039.19
2019-02-23T01:21:51.192Z,1039.18
2019-02-23T01:22:50.620Z,1039.13
2019-02-23T01:23:50.691Z,1039.14
2019-02-23T01:24:50.667Z,1039.21
2019-02-23T01:25:51.107Z,1039.26
2019-02-23T01:26:51.216Z,1039.27
2019-02-23T01:27:50.582Z,1039.33
2019-02-23T01:28:50.937Z,1039.27
2019-02-23T01:29:50.879Z,1039.3
2019-02-23T01:30:50.713Z,1039.31
2019-02-23T01:31:52.396Z,1039.39
2019-02-23T01:32:50.860Z,1039.35
2019-02-23T01:33:50.550Z,1039.35
2019-02-23T01:34:51.269Z,1039.32
2019-02-23T01:35:50.967Z,1039.39
2019-02-23T01:36:52.379Z,1039.35
2019-02-23T01:37:50.547Z,1039.37
2019-02-23T01:38:50.539Z,1039.39
2019-02-23T01:39:50.872Z,1039.38
2019-02-23T01:40:50.601Z,1039.35
2019-02-23T01:41:51.210Z,1039.33
2019-02-23T01:42:50.720Z,1039.3
2019-02-23T01:43:52.071Z,1039.34
2019-02-23T01:44:51.303Z,1039.32
2019-02-23T01:45:50.888Z,1039.34
2019-02-23T01:46:50.610Z,1039.35
2019-02-23T01:47:50.857Z,1039.37
2019-02-23T01:48:50.627Z,1039.35
2019-02-23T01:49:59.339Z,1039.35
2019-02-23T01:50:50.549Z,1039.35
2019-02-23T01:51:50.684Z,1039.34
2019-02-23T01:52:50.904Z,1039.37
2019-02-23T01:53:50.885Z,1039.33
2019-02-23T01:54:50.993Z,1039.26
2019-02-23T01:55:50.691Z,1039.29
2019-02-23T01:56:50.581Z,1039.27
2019-02-23T01:57:51.513Z,1039.25
2019-02-23T01:58:51.222Z,1039.28
2019-02-23T01:59:50.590Z,1039.22
2019-02-23T02:00:50.935Z,1039.27
2019-02-23T02:01:50.634Z,1039.25
2019-02-23T02:02:50.326Z,1039.29
2019-02-23T02:03:50.739Z,1039.35
2019-02-23T02:04:50.859Z,1039.21
2019-02-23T02:05:51.064Z,1039.25
2019-02-23T02:06:50.537Z,1039.2
2019-02-23T02:07:50.534Z,1039.18
2019-02-23T02:08:52.372Z,1039.18
2019-02-23T02:09:51.105Z,1039.16
2019-02-23T02:10:50.687Z,1039.22
2019-02-23T02:11:51.416Z,1039.21
2019-02-23T02:12:50.703Z,1039.23
2019-02-23T02:13:50.606Z,1039.24
2019-02-23T02:14:50.598Z,1039.21
2019-02-23T02:15:52.253Z,1039.19
2019-02-23T02:16:51.346Z,1039.15
2019-02-23T02:17:50.720Z,1039.18
2019-02-23T02:18:51.352Z,1039.1
2019-02-23T02:19:52.329Z,1039.09
2019-02-23T02:20:51.433Z,1039.14
2019-02-23T02:21:51.467Z,1039.12
2019-02-23T02:22:50.597Z,1039.14
2019-02-23T02:23:50.682Z,1039.15
2019-02-23T02:24:52.325Z,1039.11
2019-02-23T02:25:50.788Z,1039.17
2019-02-23T02:26:50.649Z,1039.18
2019-02-23T02:27:50.902Z,1039.21
2019-02-23T02:28:50.644Z,1039.2
2019-02-23T02:29:50.454Z,1039.14
2019-02-23T02:30:51.229Z,1039.27
2019-02-23T02:31:50.930Z,1039.28
2019-02-23T02:32:51.361Z,1039.29
2019-02-23T02:33:50.637Z,1039.29
2019-02-23T02:34:50.851Z,1039.24
2019-02-23T02:35:50.557Z,1039.27
2019-02-23T02:36:50.549Z,1039.32
2019-02-23T02:37:51.095Z,1039.28
2019-02-23T02:38:50.744Z,1039.31
2019-02-23T02:39:50.663Z,1039.29
2019-02-23T02:40:50.557Z,1039.31
2019-02-23T02:41:51.799Z,1039.31
2019-02-23T02:42:52.277Z,1039.35
2019-02-23T02:43:50.470Z,1039.31
2019-02-23T02:44:51.023Z,1039.3
2019-02-23T02:45:50.726Z,1039.36
2019-02-23T02:46:50.464Z,1039.39
2019-02-23T02:47:50.951Z,1039.39
2019-02-23T02:48:50.517Z,1039.36
2019-02-23T02:49:50.596Z,1039.39
2019-02-23T02:50:50.521Z,1039.41
2019-02-23T02:51:50.863Z,1039.39
2019-02-23T02:52:51.592Z,1039.43
2019-02-23T02:53:50.577Z,1039.42
2019-02-23T02:54:50.461Z,1039.42
2019-02-23T02:55:50.517Z,1039.35
2019-02-23T02:56:52.290Z,1039.37
2019-02-23T02:57:51.625Z,1039.32
2019-02-23T02:58:50.578Z,1039.37
2019-02-23T02:59:50.813Z,1039.37
2019-02-23T03:00:50.601Z,1039.36
2019-02-23T03:01:50.715Z,1039.31
2019-02-23T03:02:52.270Z,1039.39
2019-02-23T03:03:51.310Z,1039.33
2019-02-23T03:04:50.668Z,1039.37
2019-02-23T03:05:52.289Z,1039.41
2019-02-23T03:06:50.773Z,1039.39
2019-02-23T03:07:50.646Z,1039.37
2019-02-23T03:08:50.629Z,1039.31
2019-02-23T03:09:50.477Z,1039.31
2019-02-23T03:10:52.248Z,1039.28
2019-02-23T03:11:52.271Z,1039.24
2019-02-23T03:12:50.385Z,1039.22
2019-02-23T03:13:50.476Z,1039.21
2019-02-23T03:14:50.909Z,1039.2
2019-02-23T03:15:50.590Z,1039.23
2019-02-23T03:16:50.711Z,1039.25
2019-02-23T03:17:50.724Z,1039.25
2019-02-23T03:18:50.848Z,1039.25
2019-02-23T03:19:50.632Z,1039.22
2019-02-23T03:20:50.396Z,1039.23
2019-02-23T03:21:52.507Z,1039.25
2019-02-23T03:22:50.206Z,1039.3
2019-02-23T03:23:50.237Z,1039.29
2019-02-23T03:24:50.230Z,1039.28
2019-02-23T03:25:51.190Z,1039.31
2019-02-23T03:26:52.255Z,1039.28
2019-02-23T03:27:50.476Z,1039.34
2019-02-23T03:28:50.459Z,1039.33
2019-02-23T03:29:50.528Z,1039.26
2019-02-23T03:30:50.610Z,1039.26
2019-02-23T03:31:50.628Z,1039.3
2019-02-23T03:32:51.490Z,1039.34
2019-02-23T03:33:50.423Z,1039.26
2019-02-23T03:34:51.257Z,1039.29
2019-02-23T03:35:50.965Z,1039.27
2019-02-23T03:36:50.384Z,1039.21
2019-02-23T03:37:50.393Z,1039.32
2019-02-23T03:38:50.657Z,1039.27
2019-02-23T03:39:50.356Z,1039.3
2019-02-23T03:40:50.407Z,1039.33
2019-02-23T03:41:50.530Z,1039.39
2019-02-23T03:42:50.558Z,1039.4
2019-02-23T03:43:50.376Z,1039.42
2019-02-23T03:44:50.361Z,1039.44
2019-02-23T03:45:50.919Z,1039.44
2019-02-23T03:46:51.419Z,1039.45
2019-02-23T03:47:50.410Z,1039.44
2019-02-23T03:48:50.518Z,1039.39
2019-02-23T03:49:50.329Z,1039.45
2019-02-23T03:50:50.414Z,1039.43
2019-02-23T03:51:50.441Z,1039.44
2019-02-23T03:52:52.197Z,1039.41
2019-02-23T03:53:50.648Z,1039.4
2019-02-23T03:54:50.433Z,1039.43
2019-02-23T03:55:51.575Z,1039.45
2019-02-23T03:56:50.563Z,1039.44
2019-02-23T03:57:50.418Z,1039.44
2019-02-23T03:58:52.194Z,1039.44
2019-02-23T03:59:50.999Z,1039.48
2019-02-23T04:00:50.453Z,1039.44
2019-02-23T04:01:50.350Z,1039.46
2019-02-23T04:02:51.009Z,1039.51
2019-02-23T04:03:50.364Z,1039.51
2019-02-23T04:04:50.456Z,1039.5
2019-02-23T04:05:50.736Z,1039.55
2019-02-23T04:06:50.555Z,1039.53
2019-02-23T04:07:51.169Z,1039.51
2019-02-23T04:08:52.175Z,1039.48
2019-02-23T04:09:50.554Z,1039.46
2019-02-23T04:10:50.464Z,1039.46
2019-02-23T04:11:50.682Z,1039.4
2019-02-23T04:12:50.148Z,1039.43
2019-02-23T04:13:50.683Z,1039.4
2019-02-23T04:14:50.412Z,1039.46
2019-02-23T04:15:50.439Z,1039.45
2019-02-23T04:16:51.288Z,1039.44
2019-02-23T04:17:50.607Z,1039.46
2019-02-23T04:18:51.025Z,1039.45
2019-02-23T04:19:50.315Z,1039.39
2019-02-23T04:21:02.190Z,1039.36
2019-02-23T04:21:50.327Z,1039.33
2019-02-23T04:22:50.531Z,1039.38
2019-02-23T04:23:50.300Z,1039.39
2019-02-23T04:24:50.769Z,1039.36
2019-02-23T04:25:50.310Z,1039.41
2019-02-23T04:26:50.673Z,1039.41
2019-02-23T04:27:50.672Z,1039.42
2019-02-23T04:28:51.506Z,1039.39
2019-02-23T04:29:50.797Z,1039.42
2019-02-23T04:30:50.400Z,1039.4
2019-02-23T04:31:50.401Z,1039.36
2019-02-23T04:32:50.617Z,1039.4
2019-02-23T04:33:50.414Z,1039.38
2019-02-23T04:34:50.712Z,1039.38
2019-02-23T04:35:50.437Z,1039.37
2019-02-23T04:36:50.316Z,1039.38
2019-02-23T04:37:50.748Z,1039.33
2019-02-23T04:38:51.271Z,1039.35
2019-02-23T04:39:50.411Z,1039.36
2019-02-23T04:40:50.258Z,1039.32
2019-02-23T04:41:50.772Z,1039.3
2019-02-23T04:42:50.293Z,1039.32
2019-02-23T04:43:50.311Z,1039.33
2019-02-23T04:44:50.693Z,1039.37
2019-02-23T04:45:51.302Z,1039.36
2019-02-23T04:46:50.602Z,1039.44
2019-02-23T04:47:50.613Z,1039.45
2019-02-23T04:48:50.814Z,1039.42
2019-02-23T04:49:50.326Z,1039.41
2019-02-23T04:50:50.726Z,1039.44
2019-02-23T04:51:50.833Z,1039.42
2019-02-23T04:52:50.662Z,1039.41
2019-02-23T04:53:50.475Z,1039.39
2019-02-23T04:54:50.367Z,1039.38
2019-02-23T04:55:50.330Z,1039.36
2019-02-23T04:56:50.303Z,1039.33
2019-02-23T04:57:50.379Z,1039.35
2019-02-23T04:58:50.571Z,1039.33
2019-02-23T04:59:50.354Z,1039.37
2019-02-23T05:00:50.687Z,1039.34
2019-02-23T05:01:50.283Z,1039.37
2019-02-23T05:02:50.251Z,1039.41
2019-02-23T05:03:50.411Z,1039.43
2019-02-23T05:04:50.713Z,1039.41
2019-02-23T05:05:50.719Z,1039.37
2019-02-23T05:06:50.631Z,1039.36
2019-02-23T05:07:50.279Z,1039.31
2019-02-23T05:08:50.215Z,1039.3
2019-02-23T05:09:50.541Z,1039.29
2019-02-23T05:10:50.407Z,1039.29
2019-02-23T05:11:51.844Z,1039.29
2019-02-23T05:12:51.295Z,1039.28
2019-02-23T05:13:50.466Z,1039.23
2019-02-23T05:14:50.293Z,1039.21
2019-02-23T05:15:50.999Z,1039.23
2019-02-23T05:16:50.407Z,1039.24
2019-02-23T05:17:50.599Z,1039.29
2019-02-23T05:18:50.317Z,1039.27
2019-02-23T05:19:50.820Z,1039.29
2019-02-23T05:20:50.291Z,1039.23
2019-02-23T05:21:50.518Z,1039.23
2019-02-23T05:22:50.635Z,1039.25
2019-02-23T05:23:50.428Z,1039.25
2019-02-23T05:24:53.545Z,1039.31
2019-02-23T05:25:50.411Z,1039.33
2019-02-23T05:26:50.276Z,1039.36
2019-02-23T05:27:50.310Z,1039.4
2019-02-23T05:28:50.669Z,1039.41
2019-02-23T05:29:50.545Z,1039.39
2019-02-23T05:30:50.397Z,1039.38
2019-02-23T05:31:50.698Z,1039.39
2019-02-23T05:32:50.701Z,1039.37
2019-02-23T05:33:52.052Z,1039.38
2019-02-23T05:34:52.056Z,1039.29
2019-02-23T05:35:50.376Z,1039.35
2019-02-23T05:36:50.242Z,1039.33
2019-02-23T05:37:50.954Z,1039.34
2019-02-23T05:38:50.631Z,1039.34
2019-02-23T05:39:50.655Z,1039.32
2019-02-23T05:40:50.336Z,1039.34
2019-02-23T05:41:50.300Z,1039.35
2019-02-23T05:43:01.419Z,1039.36
2019-02-23T05:43:50.372Z,1039.37
2019-02-23T05:44:50.314Z,1039.36
2019-02-23T05:45:50.572Z,1039.32
2019-02-23T05:46:50.787Z,1039.31
2019-02-23T05:47:50.336Z,1039.25
2019-02-23T05:48:50.293Z,1039.24
2019-02-23T05:49:50.806Z,1039.19
2019-02-23T05:50:50.694Z,1039.16
2019-02-23T05:51:50.306Z,1039.13
2019-02-23T05:52:50.639Z,1039.1
2019-02-23T05:53:50.732Z,1039.09
2019-02-23T05:54:50.858Z,1039.11
2019-02-23T05:55:51.656Z,1039.15
2019-02-23T05:56:52.012Z,1039.13
2019-02-23T05:57:50.554Z,1039.13
2019-02-23T05:58:50.577Z,1039.15
2019-02-23T05:59:50.458Z,1039.15
2019-02-23T06:00:50.681Z,1039.14
2019-02-23T06:01:51.198Z,1039.12
2019-02-23T06:02:50.489Z,1039.17
2019-02-23T06:03:50.350Z,1039.13
2019-02-23T06:04:50.148Z,1039.12
2019-02-23T06:05:50.308Z,1039.14
2019-02-23T06:06:50.265Z,1039.16
2019-02-23T06:07:51.036Z,1039.11
2019-02-23T06:08:50.129Z,1039.18
2019-02-23T06:09:49.973Z,1039.18
2019-02-23T06:10:50.238Z,1039.15
2019-02-23T06:11:50.167Z,1039.15
2019-02-23T06:12:51.120Z,1039.09
2019-02-23T06:13:50.207Z,1039.2
2019-02-23T06:14:50.464Z,1039.17
2019-02-23T06:15:50.877Z,1039.22
2019-02-23T06:16:50.688Z,1039.2
2019-02-23T06:17:50.100Z,1039.22
2019-02-23T06:18:50.494Z,1039.25
2019-02-23T06:19:50.341Z,1039.23
2019-02-23T06:20:50.278Z,1039.24
2019-02-23T06:21:54.690Z,1039.27
2019-02-23T06:22:50.304Z,1039.34
2019-02-23T06:23:49.959Z,1039.35
2019-02-23T06:24:49.948Z,1039.33
2019-02-23T06:25:49.974Z,1039.37
2019-02-23T06:26:49.954Z,1039.4
2019-02-23T06:27:49.965Z,1039.36
2019-02-23T06:28:49.951Z,1039.39
2019-02-23T06:29:50.106Z,1039.35
2019-02-23T06:30:50.582Z,1039.35
2019-02-23T06:31:50.266Z,1039.38
2019-02-23T06:32:50.089Z,1039.36
2019-02-23T06:33:50.234Z,1039.38
2019-02-23T06:34:50.235Z,1039.39
2019-02-23T06:35:50.380Z,1039.47
2019-02-23T06:36:50.257Z,1039.37
2019-02-23T06:37:53.538Z,1039.35
2019-02-23T06:38:50.849Z,1039.38
2019-02-23T06:39:50.172Z,1039.4
2019-02-23T06:40:50.435Z,1039.41
2019-02-23T06:41:50.210Z,1039.38
2019-02-23T06:42:50.652Z,1039.37
2019-02-23T06:43:50.349Z,1039.34
2019-02-23T06:44:50.274Z,1039.32
2019-02-23T06:45:50.973Z,1039.35
2019-02-23T06:46:50.233Z,1039.36
2019-02-23T06:47:50.088Z,1039.31
2019-02-23T06:48:50.253Z,1039.33
2019-02-23T06:49:50.101Z,1039.33
2019-02-23T06:50:50.494Z,1039.37
2019-02-23T06:51:50.504Z,1039.33
2019-02-23T06:52:49.898Z,1039.35
2019-02-23T06:53:51.290Z,1039.31
2019-02-23T06:54:50.945Z,1039.3
2019-02-23T06:55:50.047Z,1039.33
2019-02-23T06:56:50.291Z,1039.35
2019-02-23T06:57:50.984Z,1039.35
2019-02-23T06:58:50.246Z,1039.34
2019-02-23T06:59:50.869Z,1039.39
2019-02-23T07:00:50.058Z,1039.33
2019-02-23T07:01:50.266Z,1039.36
2019-02-23T07:02:50.148Z,1039.36
2019-02-23T07:03:50.273Z,1039.3
2019-02-23T07:04:50.044Z,1039.27
2019-02-23T07:05:50.195Z,1039.29
2019-02-23T07:06:50.163Z,1039.27
2019-02-23T07:07:50.419Z,1039.24
2019-02-23T07:08:50.082Z,1039.27
2019-02-23T07:09:50.238Z,1039.27
2019-02-23T07:10:50.430Z,1039.31
2019-02-23T07:11:50.122Z,1039.28
2019-02-23T07:12:50.533Z,1039.28
2019-02-23T07:13:50.647Z,1039.29
2019-02-23T07:14:50.085Z,1039.3
2019-02-23T07:15:50.093Z,1039.31
2019-02-23T07:16:50.365Z,1039.3
2019-02-23T07:17:50.921Z,1039.32
2019-02-23T07:18:50.680Z,1039.34
2019-02-23T07:19:50.356Z,1039.36
2019-02-23T07:20:50.393Z,1039.43
2019-02-23T07:21:50.598Z,1039.39
2019-02-23T07:22:50.299Z,1039.35
2019-02-23T07:23:50.082Z,1039.38
2019-02-23T07:24:50.050Z,1039.36
2019-02-23T07:25:50.064Z,1039.39
2019-02-23T07:26:50.455Z,1039.42
2019-02-23T07:27:50.771Z,1039.46
2019-02-23T07:28:50.336Z,1039.49
2019-02-23T07:29:50.014Z,1039.55
2019-02-23T07:30:50.249Z,1039.59
2019-02-23T07:31:50.358Z,1039.65
2019-02-23T07:32:50.484Z,1039.61
2019-02-23T07:33:50.555Z,1039.64
2019-02-23T07:34:50.468Z,1039.63
2019-02-23T07:35:50.075Z,1039.62
2019-02-23T07:36:51.859Z,1039.59
2019-02-23T07:37:50.060Z,1039.64
2019-02-23T07:38:51.234Z,1039.58
2019-02-23T07:39:50.407Z,1039.55
2019-02-23T07:40:50.316Z,1039.62
2019-02-23T07:41:50.145Z,1039.61
2019-02-23T07:42:51.040Z,1039.61
2019-02-23T07:43:50.913Z,1039.66
2019-02-23T07:44:50.184Z,1039.68
2019-02-23T07:45:50.884Z,1039.71
2019-02-23T07:46:50.461Z,1039.67
2019-02-23T07:47:49.986Z,1039.67
2019-02-23T07:48:50.325Z,1039.65
2019-02-23T07:49:50.071Z,1039.64
2019-02-23T07:50:52.805Z,1039.67
2019-02-23T07:51:51.001Z,1039.71
2019-02-23T07:52:50.288Z,1039.64
2019-02-23T07:53:50.082Z,1039.7
2019-02-23T07:54:50.229Z,1039.72
2019-02-23T07:55:50.312Z,1039.74
2019-02-23T07:56:50.216Z,1039.75
2019-02-23T07:57:51.823Z,1039.77
2019-02-23T07:58:50.012Z,1039.74
2019-02-23T07:59:50.462Z,1039.72
2019-02-23T08:00:50.461Z,1039.76
2019-02-23T08:01:50.057Z,1039.71
2019-02-23T08:02:50.328Z,1039.78
2019-02-23T08:03:50.678Z,1039.8
2019-02-23T08:04:52.168Z,1039.76
2019-02-23T08:05:50.482Z,1039.76
2019-02-23T08:06:49.973Z,1039.75
2019-02-23T08:07:50.506Z,1039.78
2019-02-23T08:08:50.043Z,1039.81
2019-02-23T08:09:50.201Z,1039.81
2019-02-23T08:10:50.438Z,1039.8
2019-02-23T08:11:51.806Z,1039.81
2019-02-23T08:12:51.819Z,1039.84
2019-02-23T08:13:49.988Z,1039.89
2019-02-23T08:14:50.134Z,1039.92
2019-02-23T08:15:50.036Z,1039.86
2019-02-23T08:16:50.275Z,1039.87
2019-02-23T08:17:50.099Z,1039.9
2019-02-23T08:18:50.007Z,1039.88
2019-02-23T08:19:50.166Z,1039.87
2019-02-23T08:20:50.319Z,1039.86
2019-02-23T08:21:50.800Z,1039.87
2019-02-23T08:22:50.980Z,1039.88
2019-02-23T08:23:50.406Z,1039.96
2019-02-23T08:24:50.300Z,1039.91
2019-02-23T08:25:50.633Z,1039.96
2019-02-23T08:26:51.234Z,1039.95
2019-02-23T08:27:50.320Z,1039.97
2019-02-23T08:28:50.228Z,1040
2019-02-23T08:29:50.119Z,1039.97
2019-02-23T08:30:50.049Z,1039.93
2019-02-23T08:31:50.033Z,1039.98
2019-02-23T08:32:50.458Z,1039.98
2019-02-23T08:33:50.259Z,1040.06
2019-02-23T08:34:50.065Z,1040.05
2019-02-23T08:35:49.752Z,1039.97
2019-02-23T08:36:50.386Z,1040.02
2019-02-23T08:37:50.603Z,1040.04
2019-02-23T08:38:50.100Z,1040.08
2019-02-23T08:39:49.984Z,1040.05
2019-02-23T08:40:49.963Z,1040.06
2019-02-23T08:41:50.003Z,1040.09
2019-02-23T08:42:50.534Z,1040.1
2019-02-23T08:43:51.765Z,1040.12
2019-02-23T08:44:50.001Z,1040.1
2019-02-23T08:45:50.073Z,1040.1
2019-02-23T08:46:50.024Z,1040.01
2019-02-23T08:47:50.358Z,1040
2019-02-23T08:48:50.354Z,1040.01
2019-02-23T08:49:50.057Z,1040.06
2019-02-23T08:50:50.274Z,1040.07
2019-02-23T08:51:50.022Z,1040.13
2019-02-23T08:52:50.595Z,1040.14
2019-02-23T08:53:49.917Z,1040.13
2019-02-23T08:54:50.395Z,1040.19
2019-02-23T08:55:50.053Z,1040.18
2019-02-23T08:56:49.970Z,1040.25
2019-02-23T08:57:50.215Z,1040.19
2019-02-23T08:58:50.022Z,1040.22
2019-02-23T08:59:49.998Z,1040.25
2019-02-23T09:00:50.020Z,1040.18
2019-02-23T09:01:49.890Z,1040.21
2019-02-23T09:02:50.052Z,1040.22
2019-02-23T09:03:49.971Z,1040.19
2019-02-23T09:04:50.044Z,1040.13
2019-02-23T09:05:51.736Z,1040.01
2019-02-23T09:06:49.995Z,1039.98
2019-02-23T09:07:50.300Z,1039.91
2019-02-23T09:08:50.595Z,1039.9
2019-02-23T09:09:51.612Z,1039.92
2019-02-23T09:10:50.059Z,1039.87
2019-02-23T09:11:50.049Z,1039.89
2019-02-23T09:12:50.045Z,1039.88
2019-02-23T09:13:49.989Z,1039.84
2019-02-23T09:14:50.448Z,1039.81
2019-02-23T09:15:50.431Z,1039.82
2019-02-23T09:16:50.545Z,1039.83
2019-02-23T09:17:50.039Z,1039.86
2019-02-23T09:18:50.148Z,1039.88
2019-02-23T09:19:49.856Z,1039.88
2019-02-23T09:20:52.108Z,1039.87
2019-02-23T09:21:51.711Z,1039.89
2019-02-23T09:23:00.500Z,1039.87
2019-02-23T09:23:50.288Z,1039.81
2019-02-23T09:24:50.106Z,1039.83
2019-02-23T09:25:49.981Z,1039.84
2019-02-23T09:26:49.941Z,1039.82
2019-02-23T09:27:50.058Z,1039.81
2019-02-23T09:28:49.970Z,1039.8
2019-02-23T09:29:49.972Z,1039.75
2019-02-23T09:30:50.646Z,1039.78
2019-02-23T09:31:50.132Z,1039.82
2019-02-23T09:32:49.977Z,1039.79
2019-02-23T09:33:50.459Z,1039.8
2019-02-23T09:34:50.258Z,1039.77
2019-02-23T09:35:50.085Z,1039.79
2019-02-23T09:36:49.935Z,1039.81
2019-02-23T09:37:49.985Z,1039.86
2019-02-23T09:38:50.002Z,1039.81
2019-02-23T09:39:49.916Z,1039.85
2019-02-23T09:40:49.847Z,1039.89
2019-02-23T09:41:49.940Z,1039.85
2019-02-23T09:42:50.104Z,1039.83
2019-02-23T09:43:49.823Z,1039.77
2019-02-23T09:44:50.014Z,1039.76
2019-02-23T09:45:50.143Z,1039.76
2019-02-23T09:46:49.947Z,1039.81
2019-02-23T09:47:50.347Z,1039.84
2019-02-23T09:48:50.043Z,1039.82
2019-02-23T09:49:50.370Z,1039.78
2019-02-23T09:50:51.725Z,1039.8
2019-02-23T09:51:51.676Z,1039.82
2019-02-23T09:52:50.580Z,1039.79
2019-02-23T09:53:49.813Z,1039.78
2019-02-23T09:54:49.995Z,1039.73
2019-02-23T09:55:49.977Z,1039.73
2019-02-23T09:56:51.665Z,1039.74
2019-02-23T09:57:50.371Z,1039.76
2019-02-23T09:58:50.013Z,1039.69
2019-02-23T09:59:49.941Z,1039.66
2019-02-23T10:00:50.134Z,1039.68
2019-02-23T10:01:50.032Z,1039.69
2019-02-23T10:02:49.941Z,1039.75
2019-02-23T10:03:50.348Z,1039.75
2019-02-23T10:04:49.944Z,1039.75
2019-02-23T10:05:49.923Z,1039.75
2019-02-23T10:06:50.582Z,1039.75
2019-02-23T10:07:49.901Z,1039.76
2019-02-23T10:08:49.817Z,1039.8
2019-02-23T10:09:49.781Z,1039.83
2019-02-23T10:10:49.798Z,1039.84
2019-02-23T10:11:50.292Z,1039.89
2019-02-23T10:12:50.235Z,1039.88
2019-02-23T10:13:51.630Z,1039.88
2019-02-23T10:14:50.119Z,1039.84
2019-02-23T10:15:49.966Z,1039.89
2019-02-23T10:16:50.408Z,1039.91
2019-02-23T10:17:50.045Z,1039.9
2019-02-23T10:18:49.866Z,1039.96
2019-02-23T10:19:50.152Z,1039.92
2019-02-23T10:20:49.868Z,1039.99
2019-02-23T10:21:50.067Z,1039.96
2019-02-23T10:22:50.164Z,1039.93
2019-02-23T10:23:50.275Z,1039.89
2019-02-23T10:24:50.084Z,1039.97
2019-02-23T10:25:49.755Z,1039.94
2019-02-23T10:26:50.726Z,1039.95
2019-02-23T10:27:50.020Z,1039.89
2019-02-23T10:28:49.752Z,1039.87
2019-02-23T10:29:49.816Z,1039.9
2019-02-23T10:30:49.876Z,1039.88
2019-02-23T10:31:49.788Z,1039.92
2019-02-23T10:32:49.921Z,1039.87
2019-02-23T10:33:49.739Z,1039.91
2019-02-23T10:34:49.941Z,1039.93
2019-02-23T10:35:50.047Z,1039.96
2019-02-23T10:36:51.598Z,1039.93
2019-02-23T10:37:49.966Z,1039.86
2019-02-23T10:38:50.068Z,1039.82
2019-02-23T10:39:51.606Z,1039.8
2019-02-23T10:40:51.617Z,1039.76
2019-02-23T10:41:50.196Z,1039.73
2019-02-23T10:42:49.788Z,1039.74
2019-02-23T10:43:50.001Z,1039.73
2019-02-23T10:44:50.520Z,1039.76
2019-02-23T10:45:49.884Z,1039.79
2019-02-23T10:46:49.870Z,1039.75
2019-02-23T10:47:50.457Z,1039.73
2019-02-23T10:48:49.751Z,1039.74
2019-02-23T10:49:49.716Z,1039.75
2019-02-23T10:50:50.043Z,1039.74
2019-02-23T10:51:49.784Z,1039.72
2019-02-23T10:52:50.603Z,1039.75
2019-02-23T10:53:50.065Z,1039.68
2019-02-23T10:54:50.183Z,1039.62
2019-02-23T10:55:50.721Z,1039.55
2019-02-23T10:56:51.102Z,1039.53
2019-02-23T10:57:50.293Z,1039.58
2019-02-23T10:58:50.606Z,1039.51
2019-02-23T10:59:49.883Z,1039.54
2019-02-23T11:00:50.224Z,1039.49
2019-02-23T11:01:51.617Z,1039.51
2019-02-23T11:02:51.058Z,1039.45
2019-02-23T11:03:49.952Z,1039.42
2019-02-23T11:04:49.904Z,1039.42
2019-02-23T11:05:50.048Z,1039.31
2019-02-23T11:06:49.947Z,1039.35
2019-02-23T11:07:49.718Z,1039.3
2019-02-23T11:08:49.700Z,1039.26
2019-02-23T11:09:49.688Z,1039.22
2019-02-23T11:10:51.549Z,1039.16
2019-02-23T11:11:49.531Z,1039.18
2019-02-23T11:12:49.518Z,1039.11
2019-02-23T11:13:49.682Z,1039.08
2019-02-23T11:14:49.722Z,1039.08
2019-02-23T11:15:50.013Z,1039.13
2019-02-23T11:16:51.579Z,1039.14
2019-02-23T11:17:50.021Z,1039.1
2019-02-23T11:18:50.611Z,1039.13
2019-02-23T11:19:49.932Z,1039.12
2019-02-23T11:20:49.512Z,1039.04
2019-02-23T11:21:50.252Z,1039.09
2019-02-23T11:22:50.477Z,1039.19
2019-02-23T11:23:49.730Z,1039.17
2019-02-23T11:24:49.702Z,1039.21
2019-02-23T11:25:50.483Z,1039.11
2019-02-23T11:26:49.719Z,1039.12
2019-02-23T11:27:49.658Z,1039.16
2019-02-23T11:28:50.109Z,1039.09
2019-02-23T11:29:49.687Z,1039.18
2019-02-23T11:30:50.003Z,1039.17
2019-02-23T11:31:51.521Z,1039.14
2019-02-23T11:32:50.555Z,1039.16
2019-02-23T11:33:50.127Z,1039.19
2019-02-23T11:34:50.170Z,1039.15
2019-02-23T11:35:50.000Z,1039.19
2019-02-23T11:36:49.666Z,1039.17
2019-02-23T11:37:50.161Z,1039.14
2019-02-23T11:38:50.039Z,1039.13
2019-02-23T11:39:51.084Z,1039.13
2019-02-23T11:40:50.277Z,1039.11
2019-02-23T11:41:49.755Z,1039.1
2019-02-23T11:42:49.983Z,1039.19
2019-02-23T11:43:50.401Z,1039.12
2019-02-23T11:44:49.691Z,1039.12
2019-02-23T11:45:50.311Z,1039.2
2019-02-23T11:47:00.450Z,1039.1
2019-02-23T11:47:49.655Z,1039.09
2019-02-23T11:48:50.466Z,1039.07
2019-02-23T11:49:50.035Z,1039.04
2019-02-23T11:50:49.641Z,1039.06
2019-02-23T11:51:50.495Z,1038.98
2019-02-23T11:52:50.058Z,1039.03
2019-02-23T11:53:55.430Z,1039.03
2019-02-23T11:54:50.069Z,1039.02
2019-02-23T11:55:49.618Z,1039.03
2019-02-23T11:56:49.742Z,1039.03
2019-02-23T11:57:50.049Z,1038.93
2019-02-23T11:58:50.004Z,1038.98
2019-02-23T11:59:49.721Z,1038.94
2019-02-23T12:00:49.705Z,1038.93
2019-02-23T12:01:50.485Z,1038.91
2019-02-23T12:02:52.973Z,1038.98
2019-02-23T12:03:49.674Z,1038.89
2019-02-23T12:04:50.131Z,1038.83
2019-02-23T12:05:50.043Z,1038.77
2019-02-23T12:06:49.677Z,1038.82
2019-02-23T12:07:49.846Z,1038.79